SBSL/SLZ METAR and TAF weather

Enter ICAO airport designator
Station Type Date Time Source
SBSL METAR 2019/08/22 20:00 UTC NOAA

SBSL 222000Z 02012KT 9999 FEW020 28/23 Q1013


Station Type Date Time Source
SBSL Decoded METAR 2019/08/22 20:00 UTC NOAA

Station name not available
Aug 22, 2019 - 04:00 PM EDT / 2019.08.22 2000 UTC
Wind: from the NNE (020 degrees) at 14 MPH (12 KT):0
Visibility: greater than 7 mile(s):0
Sky conditions: mostly clear
Temperature: 82 F (28 C)
Dew Point: 73 F (23 C)
Relative Humidity: 74%
Pressure (altimeter): 29.91 in. Hg (1013 hPa)
ob: SBSL 222000Z 02012KT 9999 FEW020 28/23 Q1013
cycle: 20

Station Type Date Time Source
SBSL TAF 2019/08/22 18:43 UTC NOAA

TAF SBSL 221631Z 2218/2318 06015KT 9999 SCT020 TX32/2218Z TN25/2309Z
BECMG 2222/2224 04005KT
BECMG 2310/2312 06015KT
BECMG 2314/2316 BKN020 FEW025TCU
RMK PHI

Example: see airport list